Time;durP1;ratioP1;P1;durP2;ratioP2;P2;SDS_P1;SDS_P2;PMS_P1;PMS_P2;Temp;Humidity;BMP_temperature;BMP_pressure;BME280_temperature;BME280_humidity;BME280_pressure;Samples;Min_cycle;Max_cycle;Signal;HPM_P1;HPM_P2
2023/02/04 00:00:10;;;;;;;6.70;3.83;;;;;;;;;;4975351;28;20030;-65
2023/02/04 00:02:37;;;;;;;7.93;3.75;;;;;;;;;;4975233;28;20352;-65
2023/02/04 00:05:03;;;;;;;7.07;4.10;;;;;;;;;;4975328;28;20482;-63
2023/02/04 00:07:29;;;;;;;7.75;4.13;;;;;;;;;;4975416;28;20058;-64
2023/02/04 00:09:55;;;;;;;8.32;4.15;;;;;;;;;;4975259;28;20569;-65
2023/02/04 00:12:22;;;;;;;8.60;4.35;;;;;;;;;;4975133;28;20031;-66
2023/02/04 00:14:48;;;;;;;10.50;5.65;;;;;;;;;;4975164;28;20026;-78
2023/02/04 00:17:14;;;;;;;9.40;5.00;;;;;;;;;;4975419;28;20039;-63
2023/02/04 00:19:40;;;;;;;10.25;5.20;;;;;;;;;;4974628;28;20034;-69
2023/02/04 00:22:07;;;;;;;9.73;5.07;;;;;;;;;;4975106;28;20076;-64
2023/02/04 00:24:33;;;;;;;8.68;4.70;;;;;;;;;;4974875;28;20023;-65
2023/02/04 00:26:59;;;;;;;8.65;4.65;;;;;;;;;;4975309;28;20031;-64
2023/02/04 00:29:25;;;;;;;11.32;5.32;;;;;;;;;;4974847;28;20395;-74
2023/02/04 00:31:52;;;;;;;10.60;5.30;;;;;;;;;;4974700;28;20035;-79
2023/02/04 00:34:18;;;;;;;10.93;5.53;;;;;;;;;;4974712;28;20034;-64
2023/02/04 00:36:44;;;;;;;11.75;5.35;;;;;;;;;;4985466;28;20382;-64
2023/02/04 00:39:10;;;;;;;8.48;4.70;;;;;;;;;;4994375;28;20086;-64
2023/02/04 00:41:36;;;;;;;10.50;4.93;;;;;;;;;;4994170;28;20046;-65
2023/02/04 00:44:02;;;;;;;10.07;4.75;;;;;;;;;;4993935;28;20033;-64
2023/02/04 00:46:28;;;;;;;10.15;4.93;;;;;;;;;;4994325;28;20038;-64
2023/02/04 00:48:54;;;;;;;9.77;4.15;;;;;;;;;;4993636;28;20030;-64
2023/02/04 00:51:20;;;;;;;8.13;4.32;;;;;;;;;;4993895;28;20030;-63
2023/02/04 00:53:46;;;;;;;7.18;3.88;;;;;;;;;;4993696;28;20486;-64
2023/02/04 00:56:12;;;;;;;10.00;4.00;;;;;;;;;;4976817;28;20066;-64
2023/02/04 00:58:38;;;;;;;8.60;4.00;;;;;;;;;;4993525;28;20108;-64
2023/02/04 01:01:04;;;;;;;8.10;4.15;;;;;;;;;;4993872;28;20018;-76
2023/02/04 01:03:30;;;;;;;8.40;3.75;;;;;;;;;;4994136;28;20046;-63
2023/02/04 01:05:56;;;;;;;11.90;3.88;;;;;;;;;;4993748;28;20109;-64
2023/02/04 01:08:22;;;;;;;10.95;4.00;;;;;;;;;;4993634;28;20054;-64
2023/02/04 01:10:48;;;;;;;7.85;3.75;;;;;;;;;;4993910;28;20033;-64
2023/02/04 01:13:14;;;;;;;7.75;3.25;;;;;;;;;;4993602;28;20026;-77
2023/02/04 01:15:40;;;;;;;8.30;3.25;;;;;;;;;;4993900;28;20101;-63
2023/02/04 01:18:06;;;;;;;7.25;2.80;;;;;;;;;;4993453;28;20429;-64
2023/02/04 01:20:33;;;;;;;7.63;3.20;;;;;;;;;;4993435;28;20045;-65
2023/02/04 01:22:59;;;;;;;10.93;3.55;;;;;;;;;;4993557;28;20046;-77
2023/02/04 01:25:25;;;;;;;8.63;3.75;;;;;;;;;;4993591;28;20053;-64
2023/02/04 01:27:51;;;;;;;10.18;2.65;;;;;;;;;;4993251;28;20026;-76
2023/02/04 01:30:17;;;;;;;8.70;3.13;;;;;;;;;;4993263;28;20053;-72
2023/02/04 01:32:43;;;;;;;8.73;2.97;;;;;;;;;;4993485;28;20398;-63
2023/02/04 01:35:09;;;;;;;6.50;2.67;;;;;;;;;;4992960;28;20410;-63
2023/02/04 01:37:35;;;;;;;8.23;2.60;;;;;;;;;;4993432;28;20573;-63
2023/02/04 01:40:01;;;;;;;8.73;2.40;;;;;;;;;;4992947;28;20109;-63
2023/02/04 01:42:27;;;;;;;6.03;2.13;;;;;;;;;;4992931;28;20038;-63
2023/02/04 01:44:53;;;;;;;6.55;2.08;;;;;;;;;;4992454;28;20106;-69
2023/02/04 01:47:19;;;;;;;7.07;2.45;;;;;;;;;;4993115;28;20030;-63
2023/02/04 01:49:46;;;;;;;10.00;2.13;;;;;;;;;;4992724;28;20030;-64
2023/02/04 01:52:12;;;;;;;6.93;2.08;;;;;;;;;;4993007;28;20030;-64
2023/02/04 01:54:39;;;;;;;10.13;1.98;;;;;;;;;;4992896;28;20038;-64
2023/02/04 01:57:06;;;;;;;5.03;1.73;;;;;;;;;;4992921;28;20027;-64
2023/02/04 01:59:33;;;;;;;8.73;2.38;;;;;;;;;;4992398;28;20541;-64
2023/02/04 02:01:59;;;;;;;10.05;2.70;;;;;;;;;;4992383;28;20054;-64
2023/02/04 02:04:33;;;;;;;5.75;2.03;;;;;;;;;;4992490;28;20486;-64
2023/02/04 02:07:02;;;;;;;9.73;2.58;;;;;;;;;;4992648;28;20034;-63
2023/02/04 02:09:29;;;;;;;6.65;2.42;;;;;;;;;;4992318;28;20038;-73
2023/02/04 02:11:55;;;;;;;7.30;2.65;;;;;;;;;;4992636;28;20051;-64
2023/02/04 02:14:21;;;;;;;9.77;2.80;;;;;;;;;;4992346;28;20065;-64
2023/02/04 02:16:47;;;;;;;10.30;2.80;;;;;;;;;;4992618;28;20022;-63
2023/02/04 02:19:16;;;;;;;7.53;2.28;;;;;;;;;;4992002;28;20080;-64
2023/02/04 02:21:45;;;;;;;8.18;2.22;;;;;;;;;;4992143;28;20129;-64
2023/02/04 02:24:25;;;;;;;8.07;2.40;;;;;;;;;;4992088;28;20033;-63
2023/02/04 02:26:52;;;;;;;8.13;2.10;;;;;;;;;;4992212;28;20390;-64
2023/02/04 02:29:18;;;;;;;7.47;2.25;;;;;;;;;;4990735;28;20425;-64
2023/02/04 02:31:44;;;;;;;7.85;1.90;;;;;;;;;;4992237;28;20034;-64
2023/02/04 02:34:10;;;;;;;6.68;2.08;;;;;;;;;;4991956;28;20049;-71
2023/02/04 02:36:36;;;;;;;6.53;2.30;;;;;;;;;;4992296;28;20030;-64
2023/02/04 02:39:02;;;;;;;8.10;2.42;;;;;;;;;;4992097;28;20026;-63
2023/02/04 02:41:28;;;;;;;8.75;2.50;;;;;;;;;;4991774;28;20115;-64
2023/02/04 02:43:54;;;;;;;9.23;2.60;;;;;;;;;;4991463;28;20030;-69
2023/02/04 02:46:21;;;;;;;6.88;2.40;;;;;;;;;;4991598;28;20030;-64
2023/02/04 02:48:47;;;;;;;7.50;2.30;;;;;;;;;;4991810;28;20165;-64
2023/02/04 02:51:13;;;;;;;7.00;2.17;;;;;;;;;;4991523;28;20030;-64
2023/02/04 02:53:39;;;;;;;6.53;2.22;;;;;;;;;;4991840;28;20034;-65
2023/02/04 02:56:05;;;;;;;7.22;2.25;;;;;;;;;;4991018;28;20036;-64
2023/02/04 02:58:32;;;;;;;9.10;1.98;;;;;;;;;;4974843;28;20044;-64
2023/02/04 03:01:04;;;;;;;4.32;1.30;;;;;;;;;;4992054;28;20449;-64
2023/02/04 03:03:31;;;;;;;7.78;1.40;;;;;;;;;;4993346;28;20517;-64
2023/02/04 03:05:59;;;;;;;3.95;1.35;;;;;;;;;;4991978;28;20867;-76
2023/02/04 03:08:26;;;;;;;5.68;1.50;;;;;;;;;;4991875;28;20399;-64
2023/02/04 03:10:52;;;;;;;3.70;1.33;;;;;;;;;;4991661;28;20038;-64
2023/02/04 03:13:18;;;;;;;5.75;1.50;;;;;;;;;;4991285;28;20038;-64
2023/02/04 03:15:45;;;;;;;3.42;1.30;;;;;;;;;;4991360;28;20519;-70
2023/02/04 03:18:12;;;;;;;4.80;1.33;;;;;;;;;;4991532;28;20030;-77
2023/02/04 03:20:39;;;;;;;4.45;1.15;;;;;;;;;;4991283;28;20057;-63
2023/02/04 03:23:05;;;;;;;4.22;1.50;;;;;;;;;;4991411;28;20077;-64
2023/02/04 03:25:31;;;;;;;7.80;1.80;;;;;;;;;;4991452;28;20470;-64
2023/02/04 03:27:58;;;;;;;5.07;1.33;;;;;;;;;;4991512;28;20443;-63
2023/02/04 03:30:24;;;;;;;4.45;1.20;;;;;;;;;;4989998;28;20026;-65
2023/02/04 03:32:50;;;;;;;4.80;1.52;;;;;;;;;;4991370;28;20042;-64
2023/02/04 03:35:16;;;;;;;5.97;1.35;;;;;;;;;;4991253;28;20027;-64
2023/02/04 03:37:43;;;;;;;4.35;1.30;;;;;;;;;;4991580;28;20070;-64
2023/02/04 03:40:09;;;;;;;8.32;1.40;;;;;;;;;;4991322;28;20026;-63
2023/02/04 03:42:35;;;;;;;8.25;1.70;;;;;;;;;;4991338;28;20046;-64
2023/02/04 03:45:01;;;;;;;9.38;1.70;;;;;;;;;;4991292;28;20022;-64
2023/02/04 03:47:27;;;;;;;3.35;1.48;;;;;;;;;;4991330;28;20105;-64
2023/02/04 03:49:53;;;;;;;7.15;1.38;;;;;;;;;;4989875;28;20172;-63
2023/02/04 03:52:19;;;;;;;6.32;1.42;;;;;;;;;;4991251;28;20101;-64
2023/02/04 03:54:46;;;;;;;6.88;1.70;;;;;;;;;;4990878;28;20514;-64
2023/02/04 03:57:12;;;;;;;4.30;1.75;;;;;;;;;;4991566;28;20387;-65
2023/02/04 03:59:38;;;;;;;4.13;1.20;;;;;;;;;;4990925;28;20027;-64
2023/02/04 04:02:04;;;;;;;4.80;1.50;;;;;;;;;;4991077;28;20057;-64
2023/02/04 04:04:30;;;;;;;6.15;1.45;;;;;;;;;;4990843;28;20018;-65
2023/02/04 04:06:56;;;;;;;4.18;1.15;;;;;;;;;;4991706;28;20157;-69
2023/02/04 04:09:22;;;;;;;4.90;1.40;;;;;;;;;;4994725;28;20050;-64
2023/02/04 04:11:48;;;;;;;4.38;1.42;;;;;;;;;;4994969;28;20033;-66
2023/02/04 04:14:14;;;;;;;5.75;1.48;;;;;;;;;;4994353;28;20027;-64
2023/02/04 04:16:40;;;;;;;3.83;1.20;;;;;;;;;;4994966;28;20081;-71
2023/02/04 04:19:06;;;;;;;6.32;1.77;;;;;;;;;;4994437;28;20385;-72
2023/02/04 04:21:32;;;;;;;7.55;1.70;;;;;;;;;;4994481;28;20387;-64
2023/02/04 04:23:58;;;;;;;4.85;1.85;;;;;;;;;;4994504;28;20030;-64
2023/02/04 04:26:24;;;;;;;4.25;1.80;;;;;;;;;;4994678;28;20030;-64
2023/02/04 04:28:50;;;;;;;4.72;1.73;;;;;;;;;;4994631;28;20034;-64
2023/02/04 04:31:16;;;;;;;5.95;1.63;;;;;;;;;;4994154;28;20092;-65
2023/02/04 04:33:42;;;;;;;7.60;1.80;;;;;;;;;;4994408;28;20030;-64
2023/02/04 04:36:08;;;;;;;5.75;1.73;;;;;;;;;;4994287;28;20433;-64
2023/02/04 04:38:35;;;;;;;6.68;2.00;;;;;;;;;;4994037;28;20085;-73
2023/02/04 04:41:01;;;;;;;6.13;2.20;;;;;;;;;;4994009;28;20386;-64
2023/02/04 04:43:27;;;;;;;7.00;2.08;;;;;;;;;;4993993;28;20046;-75
2023/02/04 04:45:53;;;;;;;8.13;2.80;;;;;;;;;;4994134;28;20030;-63
2023/02/04 04:48:20;;;;;;;6.82;2.63;;;;;;;;;;4993953;28;20030;-64
2023/02/04 04:50:46;;;;;;;8.00;2.45;;;;;;;;;;4993711;28;20018;-64
2023/02/04 04:53:12;;;;;;;7.05;2.17;;;;;;;;;;4994207;28;20038;-68
2023/02/04 04:55:38;;;;;;;7.20;2.50;;;;;;;;;;4993864;28;20100;-68
2023/02/04 04:58:05;;;;;;;6.38;2.20;;;;;;;;;;4994137;28;20034;-64
2023/02/04 05:00:31;;;;;;;7.05;2.20;;;;;;;;;;4993695;28;20037;-64
2023/02/04 05:02:57;;;;;;;5.95;2.00;;;;;;;;;;4993658;28;20061;-64
2023/02/04 05:05:23;;;;;;;5.50;2.40;;;;;;;;;;4993516;28;20018;-64
2023/02/04 05:07:49;;;;;;;5.10;2.15;;;;;;;;;;4993732;28;20022;-64
2023/02/04 05:10:15;;;;;;;6.03;2.33;;;;;;;;;;4993464;28;20033;-65
2023/02/04 05:12:41;;;;;;;7.80;2.45;;;;;;;;;;4993765;28;20467;-64
2023/02/04 05:15:08;;;;;;;10.15;2.97;;;;;;;;;;4993302;28;20042;-65
2023/02/04 05:17:34;;;;;;;5.30;2.30;;;;;;;;;;4993924;28;20137;-64
2023/02/04 05:20:00;;;;;;;8.30;2.50;;;;;;;;;;4992618;28;20026;-64
2023/02/04 05:22:26;;;;;;;7.82;2.55;;;;;;;;;;4993200;28;20038;-75
2023/02/04 05:24:52;;;;;;;7.97;2.70;;;;;;;;;;4993141;28;20049;-64
2023/02/04 05:27:18;;;;;;;8.32;2.70;;;;;;;;;;4993683;28;20072;-64
2023/02/04 05:29:44;;;;;;;11.07;2.97;;;;;;;;;;4993155;28;20475;-67
2023/02/04 05:32:10;;;;;;;6.97;2.90;;;;;;;;;;4993275;28;20023;-67
2023/02/04 05:34:36;;;;;;;9.30;3.00;;;;;;;;;;4992969;28;20038;-64
2023/02/04 05:37:02;;;;;;;11.95;2.90;;;;;;;;;;4992969;28;20023;-63
2023/02/04 05:39:28;;;;;;;7.10;2.03;;;;;;;;;;4992787;28;20141;-64
2023/02/04 05:41:54;;;;;;;7.03;2.33;;;;;;;;;;4993287;28;20125;-64
2023/02/04 05:44:20;;;;;;;8.57;2.38;;;;;;;;;;4993067;28;20102;-69
2023/02/04 05:46:46;;;;;;;8.63;2.30;;;;;;;;;;4992870;28;20049;-64
2023/02/04 05:49:12;;;;;;;10.07;2.75;;;;;;;;;;4992785;28;20026;-64
2023/02/04 05:51:38;;;;;;;9.73;3.33;;;;;;;;;;4992883;28;20108;-64
2023/02/04 05:54:04;;;;;;;10.82;3.40;;;;;;;;;;4992432;28;20103;-73
2023/02/04 05:56:30;;;;;;;10.00;2.97;;;;;;;;;;4992852;28;20426;-65
2023/02/04 05:58:56;;;;;;;11.73;2.50;;;;;;;;;;4992755;28;20054;-74
2023/02/04 06:01:22;;;;;;;12.68;3.30;;;;;;;;;;4992394;28;20100;-66
2023/02/04 06:03:48;;;;;;;11.00;3.60;;;;;;;;;;4992448;28;20791;-64
2023/02/04 06:06:14;;;;;;;9.10;2.75;;;;;;;;;;4976089;28;20515;-64
2023/02/04 06:08:40;;;;;;;8.45;2.17;;;;;;;;;;4971814;28;20034;-64
2023/02/04 06:11:06;;;;;;;6.07;2.30;;;;;;;;;;4973169;28;20039;-77
2023/02/04 06:13:32;;;;;;;7.10;2.17;;;;;;;;;;4972809;28;20023;-65
2023/02/04 06:15:58;;;;;;;6.40;2.08;;;;;;;;;;4972990;28;20027;-64
2023/02/04 06:18:24;;;;;;;7.88;2.25;;;;;;;;;;4972820;28;20407;-65
2023/02/04 06:20:50;;;;;;;5.90;1.85;;;;;;;;;;4972175;28;20482;-64
2023/02/04 06:23:16;;;;;;;12.20;3.28;;;;;;;;;;4972742;28;20049;-64
2023/02/04 06:25:42;;;;;;;8.65;2.47;;;;;;;;;;4972960;28;20025;-64
2023/02/04 06:28:08;;;;;;;6.07;1.80;;;;;;;;;;4972878;28;20533;-63
2023/02/04 06:30:36;;;;;;;9.68;2.50;;;;;;;;;;4972229;28;20031;-64
2023/02/04 06:33:02;;;;;;;7.88;2.30;;;;;;;;;;4972598;28;20391;-66
2023/02/04 06:35:28;;;;;;;5.55;1.77;;;;;;;;;;4972291;28;20541;-66
2023/02/04 06:37:54;;;;;;;6.22;1.95;;;;;;;;;;4972358;28;20545;-65
2023/02/04 06:40:20;;;;;;;5.82;1.90;;;;;;;;;;4972376;28;20037;-64
2023/02/04 06:42:46;;;;;;;5.78;2.13;;;;;;;;;;4972377;28;20074;-72
2023/02/04 06:45:12;;;;;;;7.50;2.05;;;;;;;;;;4972347;28;20059;-64
2023/02/04 06:47:38;;;;;;;5.80;2.15;;;;;;;;;;4972693;28;20117;-64
2023/02/04 06:50:04;;;;;;;8.20;2.30;;;;;;;;;;4972333;28;20019;-64
2023/02/04 06:52:30;;;;;;;10.52;2.85;;;;;;;;;;4972267;28;20034;-65
2023/02/04 06:54:56;;;;;;;7.35;2.22;;;;;;;;;;4972093;28;20130;-71
2023/02/04 06:57:22;;;;;;;5.00;1.75;;;;;;;;;;4972412;28;20056;-63
2023/02/04 06:59:48;;;;;;;6.38;2.10;;;;;;;;;;4972111;28;20046;-64
2023/02/04 07:02:14;;;;;;;6.82;2.00;;;;;;;;;;4981628;28;20054;-77
2023/02/04 07:04:42;;;;;;;14.48;2.80;;;;;;;;;;4991204;28;20355;-64
2023/02/04 07:07:09;;;;;;;6.70;2.10;;;;;;;;;;4991139;28;20394;-65
2023/02/04 07:09:35;;;;;;;6.90;2.28;;;;;;;;;;4984128;28;20026;-65
2023/02/04 07:12:01;;;;;;;5.80;2.25;;;;;;;;;;4971068;28;20039;-64
2023/02/04 07:14:27;;;;;;;9.55;2.80;;;;;;;;;;4970458;28;20211;-64
2023/02/04 07:16:53;;;;;;;8.25;2.60;;;;;;;;;;4970478;28;20134;-65
2023/02/04 07:19:19;;;;;;;7.10;2.13;;;;;;;;;;4970728;28;20019;-65
2023/02/04 07:21:45;;;;;;;6.60;2.47;;;;;;;;;;4970606;28;20458;-65
2023/02/04 07:24:11;;;;;;;6.40;2.33;;;;;;;;;;4970695;28;20035;-72
2023/02/04 07:26:37;;;;;;;7.18;1.90;;;;;;;;;;4970815;28;20030;-65
2023/02/04 07:29:03;;;;;;;7.70;2.00;;;;;;;;;;4970687;28;20505;-76
2023/02/04 07:31:29;;;;;;;5.75;2.53;;;;;;;;;;4970449;28;20438;-65
2023/02/04 07:33:55;;;;;;;7.88;2.60;;;;;;;;;;4970691;28;20038;-72
2023/02/04 07:36:21;;;;;;;7.47;2.75;;;;;;;;;;4970318;28;20023;-65
2023/02/04 07:38:47;;;;;;;7.43;2.92;;;;;;;;;;4970362;28;20105;-65
2023/02/04 07:41:13;;;;;;;7.45;3.67;;;;;;;;;;4969637;28;20023;-66
2023/02/04 07:43:39;;;;;;;13.73;4.65;;;;;;;;;;4973964;28;20045;-64
2023/02/04 07:46:05;;;;;;;8.43;3.22;;;;;;;;;;4975603;28;20113;-65
2023/02/04 07:48:31;;;;;;;8.05;3.47;;;;;;;;;;4975384;28;20037;-65
2023/02/04 07:50:57;;;;;;;9.13;3.67;;;;;;;;;;4975487;28;20111;-67
2023/02/04 07:53:24;;;;;;;13.63;3.38;;;;;;;;;;4978635;28;20031;-68
2023/02/04 07:55:50;;;;;;;7.63;3.10;;;;;;;;;;4994778;28;20026;-66
2023/02/04 07:58:16;;;;;;;9.10;2.60;;;;;;;;;;4995223;28;20034;-65
2023/02/04 08:00:42;;;;;;;7.13;2.40;;;;;;;;;;4994494;28;20050;-75
2023/02/04 08:03:08;;;;;;;10.00;3.05;;;;;;;;;;4994775;28;20161;-74
2023/02/04 08:05:34;;;;;;;11.93;3.58;;;;;;;;;;4990750;28;20025;-65
2023/02/04 08:08:00;;;;;;;6.93;3.10;;;;;;;;;;4976714;28;20030;-81
2023/02/04 08:10:27;;;;;;;8.27;3.10;;;;;;;;;;4974786;28;20015;-76
2023/02/04 08:12:53;;;;;;;8.25;3.42;;;;;;;;;;4974507;28;20170;-63
2023/02/04 08:15:19;;;;;;;11.80;3.95;;;;;;;;;;4973065;28;20021;-66
2023/02/04 08:17:45;;;;;;;9.95;3.95;;;;;;;;;;4973400;28;20042;-69
2023/02/04 08:20:11;;;;;;;12.52;3.63;;;;;;;;;;4974487;28;20022;-64
2023/02/04 08:22:37;;;;;;;9.13;3.90;;;;;;;;;;4974299;28;20478;-65
2023/02/04 08:25:07;;;;;;;8.85;4.13;;;;;;;;;;4975015;28;20019;-64
2023/02/04 08:27:33;;;;;;;10.20;4.65;;;;;;;;;;4974484;28;20027;-64
2023/02/04 08:29:59;;;;;;;10.02;5.32;;;;;;;;;;4974584;28;20038;-73
2023/02/04 08:32:26;;;;;;;8.82;4.72;;;;;;;;;;4973693;28;20037;-74
2023/02/04 08:34:52;;;;;;;10.35;5.25;;;;;;;;;;4974169;28;20023;-65
2023/02/04 08:37:18;;;;;;;12.85;5.20;;;;;;;;;;4974455;28;20029;-65
2023/02/04 08:39:45;;;;;;;9.23;3.65;;;;;;;;;;4974521;28;20026;-70
2023/02/04 08:42:11;;;;;;;9.35;4.30;;;;;;;;;;4974818;28;20498;-73
2023/02/04 08:44:37;;;;;;;12.88;4.90;;;;;;;;;;4974371;28;20031;-64
2023/02/04 08:47:03;;;;;;;9.57;3.38;;;;;;;;;;4974296;28;20035;-68
2023/02/04 08:49:29;;;;;;;8.60;3.40;;;;;;;;;;4974309;28;20382;-64
2023/02/04 08:51:55;;;;;;;8.40;3.00;;;;;;;;;;4973740;28;20073;-65
2023/02/04 08:54:21;;;;;;;8.90;3.25;;;;;;;;;;4979623;28;20037;-78
2023/02/04 08:56:47;;;;;;;9.50;2.63;;;;;;;;;;4973243;28;20044;-64
2023/02/04 08:59:13;;;;;;;6.85;2.88;;;;;;;;;;4972743;28;20078;-73
2023/02/04 09:01:39;;;;;;;8.95;2.83;;;;;;;;;;4973136;28;20081;-74
2023/02/04 09:04:06;;;;;;;6.30;2.63;;;;;;;;;;4974026;28;20026;-68
2023/02/04 09:06:32;;;;;;;7.90;2.50;;;;;;;;;;4973761;28;20023;-65
2023/02/04 09:08:58;;;;;;;6.07;2.40;;;;;;;;;;4972865;28;20058;-66
2023/02/04 09:11:24;;;;;;;6.72;2.25;;;;;;;;;;4970593;28;20454;-67
2023/02/04 09:13:50;;;;;;;6.10;2.60;;;;;;;;;;4973226;28;20031;-63
2023/02/04 09:16:17;;;;;;;7.90;3.30;;;;;;;;;;4973628;28;20035;-63
2023/02/04 09:18:43;;;;;;;9.95;3.60;;;;;;;;;;4973861;28;20073;-63
2023/02/04 09:21:09;;;;;;;8.68;3.03;;;;;;;;;;4973756;28;20027;-63
2023/02/04 09:23:35;;;;;;;7.47;3.30;;;;;;;;;;4973589;28;20240;-63
2023/02/04 09:26:03;;;;;;;9.27;2.92;;;;;;;;;;4973472;28;20097;-63
2023/02/04 09:28:29;;;;;;;4.25;1.08;;;;;;;;;;4973634;28;20031;-69
2023/02/04 09:30:55;;;;;;;3.65;1.40;;;;;;;;;;4973670;28;20030;-65
2023/02/04 09:33:21;;;;;;;5.13;1.50;;;;;;;;;;4972652;28;20376;-65
2023/02/04 09:35:48;;;;;;;4.53;1.60;;;;;;;;;;4974000;28;20436;-64
2023/02/04 09:38:14;;;;;;;5.90;2.30;;;;;;;;;;4978046;28;20034;-65
2023/02/04 09:40:47;;;;;;;6.75;1.80;;;;;;;;;;4972291;28;20034;-64
2023/02/04 09:43:16;;;;;;;4.30;1.83;;;;;;;;;;4967644;28;20045;-76
2023/02/04 09:45:42;;;;;;;5.15;1.95;;;;;;;;;;4972025;28;20023;-63
2023/02/04 09:48:11;;;;;;;4.38;2.00;;;;;;;;;;4972515;28;20023;-63
2023/02/04 09:50:37;;;;;;;7.35;2.60;;;;;;;;;;4971315;28;20106;-64
2023/02/04 09:53:04;;;;;;;7.47;2.90;;;;;;;;;;4971941;28;20023;-65
2023/02/04 09:55:35;;;;;;;5.22;2.00;;;;;;;;;;4971860;28;20019;-64
2023/02/04 09:58:01;;;;;;;7.60;2.55;;;;;;;;;;4971681;28;20454;-73
2023/02/04 10:00:29;;;;;;;6.28;2.75;;;;;;;;;;4973064;28;20039;-71
2023/02/04 10:02:59;;;;;;;9.60;4.35;;;;;;;;;;4973326;28;20054;-79
2023/02/04 10:05:30;;;;;;;6.30;2.40;;;;;;;;;;4972750;28;20041;-74
2023/02/04 10:07:57;;;;;;;5.47;2.45;;;;;;;;;;4972461;28;20057;-64
2023/02/04 10:10:25;;;;;;;8.73;3.38;;;;;;;;;;4972223;28;20537;-79
2023/02/04 10:12:53;;;;;;;5.50;2.42;;;;;;;;;;4972948;28;20073;-79
2023/02/04 10:15:20;;;;;;;8.10;2.85;;;;;;;;;;4972235;28;20077;-74
2023/02/04 10:17:48;;;;;;;4.65;1.90;;;;;;;;;;4971537;28;20035;-66
2023/02/04 10:20:15;;;;;;;6.10;2.47;;;;;;;;;;4971803;28;20049;-64
2023/02/04 10:22:41;;;;;;;4.22;1.95;;;;;;;;;;4971421;28;20383;-64
2023/02/04 10:25:14;;;;;;;7.05;2.80;;;;;;;;;;4970968;28;20030;-78
2023/02/04 10:27:54;;;;;;;5.38;2.55;;;;;;;;;;4971527;28;20038;-64
2023/02/04 10:30:34;;;;;;;8.10;3.40;;;;;;;;;;4971419;28;20037;-65
2023/02/04 10:33:00;;;;;;;5.00;2.40;;;;;;;;;;4970975;28;20035;-65
2023/02/04 10:35:26;;;;;;;5.20;2.53;;;;;;;;;;4968409;28;20026;-65
2023/02/04 10:38:05;;;;;;;4.70;2.50;;;;;;;;;;4971507;28;20086;-64
2023/02/04 10:40:32;;;;;;;1.85;0.95;;;;;;;;;;4970295;28;20037;-65
2023/02/04 10:42:59;;;;;;;4.28;1.95;;;;;;;;;;4968407;28;20035;-65
2023/02/04 10:45:29;;;;;;;9.52;3.63;;;;;;;;;;4979662;28;20065;-62
2023/02/04 10:47:56;;;;;;;21.20;6.95;;;;;;;;;;4991572;28;20041;-62
2023/02/04 10:50:23;;;;;;;19.45;5.72;;;;;;;;;;4991661;28;20028;-63
2023/02/04 10:54:28;;;;;;;11.70;3.42;;;;;;;;;;4991530;28;20540;-61
2023/02/04 10:55:49;;;;;;;8.10;3.85;;;;;;;;;;4991669;28;20121;-63
2023/02/04 10:58:17;;;;;;;17.15;6.78;;;;;;;;;;4991626;28;20118;-71
2023/02/04 11:00:43;;;;;;;37.90;16.45;;;;;;;;;;4991410;28;20022;-71
2023/02/04 11:03:31;;;;;;;15.77;7.13;;;;;;;;;;4991341;28;20096;-62
2023/02/04 11:05:58;;;;;;;7.18;3.53;;;;;;;;;;4991473;28;20033;-66
2023/02/04 11:08:33;;;;;;;6.82;3.35;;;;;;;;;;4991123;28;20064;-62
2023/02/04 11:11:00;;;;;;;18.30;8.43;;;;;;;;;;4991392;28;20022;-62
2023/02/04 11:13:27;;;;;;;10.65;4.07;;;;;;;;;;4991597;28;20475;-61
2023/02/04 11:16:12;;;;;;;35.70;14.85;;;;;;;;;;4991276;28;20038;-61
2023/02/04 11:18:45;;;;;;;7.30;3.80;;;;;;;;;;4991203;28;20038;-65
2023/02/04 11:21:15;;;;;;;7.68;4.10;;;;;;;;;;4991214;28;20029;-62
2023/02/04 11:23:41;;;;;;;7.80;4.43;;;;;;;;;;4991386;28;20040;-63
2023/02/04 11:26:09;;;;;;;6.70;3.70;;;;;;;;;;4991242;28;20030;-61
2023/02/04 11:28:39;;;;;;;9.25;4.25;;;;;;;;;;4991432;28;20390;-64
2023/02/04 11:31:13;;;;;;;8.02;4.15;;;;;;;;;;4991016;28;20027;-69
2023/02/04 11:33:41;;;;;;;10.98;5.68;;;;;;;;;;4991355;28;20038;-62
2023/02/04 11:36:12;;;;;;;10.15;5.10;;;;;;;;;;4991368;28;20022;-64
2023/02/04 11:38:38;;;;;;;18.30;8.05;;;;;;;;;;4991435;28;20105;-63
2023/02/04 11:41:04;;;;;;;9.30;4.60;;;;;;;;;;4991006;28;20030;-64
2023/02/04 11:43:37;;;;;;;8.50;5.30;;;;;;;;;;4990935;28;20126;-64
2023/02/04 11:46:13;;;;;;;10.27;5.95;;;;;;;;;;4982876;28;20489;-63
2023/02/04 11:48:39;;;;;;;9.02;4.82;;;;;;;;;;4969168;28;20039;-63
2023/02/04 11:51:14;;;;;;;10.45;5.43;;;;;;;;;;4971680;28;20054;-64
2023/02/04 11:53:40;;;;;;;8.75;4.93;;;;;;;;;;4969316;28;20034;-61
2023/02/04 11:56:06;;;;;;;11.05;5.32;;;;;;;;;;4971307;28;20043;-64
2023/02/04 11:58:32;;;;;;;11.65;5.15;;;;;;;;;;4970561;28;20026;-62
2023/02/04 12:00:59;;;;;;;8.95;5.30;;;;;;;;;;4971313;28;20475;-69
2023/02/04 12:03:25;;;;;;;11.77;6.15;;;;;;;;;;4970767;28;20066;-72
2023/02/04 12:05:53;;;;;;;9.45;5.53;;;;;;;;;;4969764;28;20061;-63
2023/02/04 12:08:22;;;;;;;8.15;5.13;;;;;;;;;;4969563;28;20031;-62
2023/02/04 12:10:59;;;;;;;9.00;5.13;;;;;;;;;;4970887;28;20030;-67
2023/02/04 12:13:25;;;;;;;9.32;4.82;;;;;;;;;;4966847;28;20031;-67
2023/02/04 12:15:54;;;;;;;10.93;5.20;;;;;;;;;;4971384;28;20027;-62
2023/02/04 12:18:20;;;;;;;8.68;4.63;;;;;;;;;;4971203;28;20502;-63
2023/02/04 12:20:46;;;;;;;7.55;3.83;;;;;;;;;;4971356;28;20085;-62
2023/02/04 12:23:12;;;;;;;8.73;4.90;;;;;;;;;;4970841;28;20039;-61
2023/02/04 12:25:38;;;;;;;9.75;4.53;;;;;;;;;;4970768;28;20034;-61
2023/02/04 12:28:04;;;;;;;11.05;5.07;;;;;;;;;;4971964;28;20027;-63
2023/02/04 12:30:30;;;;;;;7.63;4.82;;;;;;;;;;4974862;28;20464;-67
2023/02/04 12:32:56;;;;;;;9.48;5.20;;;;;;;;;;4974963;28;20170;-63
2023/02/04 12:35:22;;;;;;;11.43;6.00;;;;;;;;;;4973143;28;20036;-72
2023/02/04 12:37:48;;;;;;;9.35;5.07;;;;;;;;;;4972886;28;20045;-61
2023/02/04 12:40:15;;;;;;;8.18;4.53;;;;;;;;;;4973475;28;20648;-61
2023/02/04 12:42:42;;;;;;;13.68;5.93;;;;;;;;;;4973063;28;20031;-71
2023/02/04 12:45:08;;;;;;;4.97;2.50;;;;;;;;;;4972794;28;20015;-62
2023/02/04 12:47:34;;;;;;;8.10;4.22;;;;;;;;;;4973239;28;20108;-62
2023/02/04 12:50:00;;;;;;;8.52;4.47;;;;;;;;;;4973378;28;20075;-61
2023/02/04 12:52:26;;;;;;;6.72;4.03;;;;;;;;;;4972833;28;20030;-62
2023/02/04 12:54:52;;;;;;;7.75;4.80;;;;;;;;;;4972997;28;20027;-63
2023/02/04 12:57:18;;;;;;;7.75;4.43;;;;;;;;;;4973225;28;20035;-63
2023/02/04 12:59:48;;;;;;;7.25;4.75;;;;;;;;;;4974156;28;20522;-67
2023/02/04 13:02:14;;;;;;;8.85;3.95;;;;;;;;;;4973469;28;20055;-63
2023/02/04 13:04:40;;;;;;;8.75;5.50;;;;;;;;;;4973073;28;20027;-62
2023/02/04 13:07:07;;;;;;;6.38;3.47;;;;;;;;;;4972879;28;20023;-62
2023/02/04 13:09:33;;;;;;;9.45;5.93;;;;;;;;;;4973949;28;20026;-63
2023/02/04 13:11:59;;;;;;;7.13;4.65;;;;;;;;;;4973917;28;20027;-62
2023/02/04 13:14:26;;;;;;;8.95;4.82;;;;;;;;;;4974359;28;20114;-62
2023/02/04 13:16:52;;;;;;;11.88;6.35;;;;;;;;;;4972861;28;20022;-62
2023/02/04 13:19:18;;;;;;;12.43;6.93;;;;;;;;;;4973460;28;20026;-62
2023/02/04 13:21:44;;;;;;;8.48;5.00;;;;;;;;;;4973424;28;20026;-62
2023/02/04 13:24:11;;;;;;;8.82;5.45;;;;;;;;;;4973653;28;20519;-61
2023/02/04 13:26:37;;;;;;;10.23;6.10;;;;;;;;;;4974002;28;20033;-62
2023/02/04 13:29:03;;;;;;;9.23;4.65;;;;;;;;;;4970882;28;20030;-62
2023/02/04 13:31:29;;;;;;;9.85;6.05;;;;;;;;;;4972644;28;20027;-66
2023/02/04 13:33:55;;;;;;;10.35;5.88;;;;;;;;;;4972654;28;20035;-63
2023/02/04 13:36:21;;;;;;;9.65;5.75;;;;;;;;;;4973814;28;20386;-63
2023/02/04 13:38:47;;;;;;;8.98;5.97;;;;;;;;;;4973334;28;20058;-63
2023/02/04 13:41:13;;;;;;;8.13;5.13;;;;;;;;;;4972842;28;20023;-63
2023/02/04 13:43:39;;;;;;;7.95;5.53;;;;;;;;;;4973093;28;20050;-62
2023/02/04 13:46:05;;;;;;;11.40;5.82;;;;;;;;;;4973230;28;20049;-62
2023/02/04 13:48:32;;;;;;;10.32;5.28;;;;;;;;;;4973341;28;20035;-63
2023/02/04 13:50:58;;;;;;;9.55;4.82;;;;;;;;;;4973171;28;20031;-62
2023/02/04 13:53:29;;;;;;;8.75;4.95;;;;;;;;;;4973249;28;20169;-62
2023/02/04 13:55:55;;;;;;;4.65;3.03;;;;;;;;;;4973080;28;20453;-62
2023/02/04 13:58:21;;;;;;;5.57;2.53;;;;;;;;;;4971323;28;20513;-63
2023/02/04 14:00:47;;;;;;;12.15;5.40;;;;;;;;;;4973055;28;20031;-62
2023/02/04 14:03:13;;;;;;;7.63;4.20;;;;;;;;;;4972591;28;20051;-64
2023/02/04 14:05:39;;;;;;;5.75;3.00;;;;;;;;;;4972957;28;20398;-65
2023/02/04 14:08:05;;;;;;;9.00;5.30;;;;;;;;;;4971911;28;20034;-64
2023/02/04 14:10:31;;;;;;;11.65;5.38;;;;;;;;;;4972401;28;20033;-64
2023/02/04 14:12:57;;;;;;;11.95;5.05;;;;;;;;;;4972723;28;20385;-64
2023/02/04 14:15:24;;;;;;;7.75;3.10;;;;;;;;;;4972909;28;20018;-65
2023/02/04 14:17:50;;;;;;;7.80;4.65;;;;;;;;;;4972796;28;20033;-65
2023/02/04 14:20:16;;;;;;;5.68;2.88;;;;;;;;;;4972403;28;20059;-65
2023/02/04 14:22:42;;;;;;;7.70;3.67;;;;;;;;;;4972687;28;20133;-66
2023/02/04 14:25:09;;;;;;;7.38;4.15;;;;;;;;;;4972612;28;20023;-65
2023/02/04 14:27:37;;;;;;;7.68;4.10;;;;;;;;;;4972524;28;20558;-65
2023/02/04 14:30:04;;;;;;;7.22;4.18;;;;;;;;;;4972475;28;20027;-65
2023/02/04 14:32:30;;;;;;;6.00;3.13;;;;;;;;;;4972680;28;20375;-66
2023/02/04 14:34:56;;;;;;;7.03;3.33;;;;;;;;;;4972456;28;20118;-66
2023/02/04 14:37:27;;;;;;;7.20;3.83;;;;;;;;;;4972577;28;20145;-65